Conti Salome — A8LL8 — position and weather

sailwx.info

Track history (hours):
 
Tides and Currents Weather Stations Pressure Air Temp Water Temp Dewpoint Dewpoint Depression Visibility Wind Speed Wind Dir Waves Ship Positions

Conti Salome

Last reported at 2017-Nov-19 06:00 UTC. Time now 2017-Nov-20 02:15 UTC.
Position N 22°18' W 110°00'.

Length 203 m; beam 28 m; draft 11 m.

Type: Cargo ship. MMSI: 636017730.

Wind from 310 at 8 knots

Barometer 1012.0 mb
Air temperature 25.5 ° C
Visibility: greater than 10.8 NM
Dewpoint 24.1 ° C
Water temperature 28.0 ° C

Date/timePositionNaut miles runAvg speedWind from/ knotsBaromVisibWave heightAir tempDewpointWater temp
2017-Nov-19 06:00N 22°18' W 110°00'29216.2 310 / 81012.010.8 25.524.128.0
2017-Nov-18 12:00N 25°48' W 113°42'7418.5 360 / 121014.010.8 20.519.822.0
2017-Nov-18 08:00N 26°48' W 114°30'30016.2 340 / 171015.010.8 19.518.021.0
2017-Nov-17 13:27N 31°11' W 117°15'716.6
2017-Nov-17 13:00N 31°18' W 117°18'1316.5
2017-Nov-17 12:12N 31°30' W 117°24'616.4
2017-Nov-17 11:50N 31°36' W 117°27'616.5
2017-Nov-17 11:28N 31°41' W 117°29'2216.6
2017-Nov-17 10:07N 32°03' W 117°37'216.0
2017-Nov-17 10:00N 32°04' W 117°38'816.5
2017-Nov-17 09:30N 32°12' W 117°41'816.3
2017-Nov-17 09:01N 32°20' W 117°44'611.8
2017-Nov-17 08:31N 32°24' W 117°49'4 8.9
2017-Nov-17 08:01N 32°27' W 117°52'714.2
2017-Nov-17 07:30N 32°33' W 117°57'816.2
2017-Nov-17 07:00N 32°40' W 118°02'816.1
2017-Nov-17 06:30N 32°46' W 118°08'816.4
2017-Nov-17 06:00N 32°53' W 118°14'816.4
2017-Nov-17 05:30N 32°60' W 118°19'816.3
2017-Nov-17 05:00N 33°06' W 118°25'816.1
2017-Nov-17 04:30N 33°13' W 118°31'816.3
2017-Nov-17 04:00N 33°19' W 118°37'816.1
2017-Nov-17 03:30N 33°26' W 118°42'816.3
2017-Nov-17 03:00N 33°32' W 118°49'816.0
2017-Nov-17 02:29N 33°39' W 118°55'816.3
2017-Nov-17 02:00N 33°45' W 119°00'816.1
2017-Nov-17 01:29N 33°52' W 119°06'816.5
2017-Nov-17 00:59N 33°59' W 119°12'815.9
2017-Nov-17 00:30N 34°06' W 119°14'3 3.1
2017-Nov-16 23:33N 34°09' W 119°12'0 0.0
2017-Nov-16 23:03N 34°09' W 119°12'0 0.0
2017-Nov-16 21:50N 34°09' W 119°12'0 0.0
2017-Nov-16 19:16N 34°09' W 119°12'0 0.0
2017-Nov-16 11:34N 34°09' W 119°12'0 0.0
2017-Nov-16 11:30N 34°09' W 119°12'0 0.0
2017-Nov-16 10:57N 34°09' W 119°12'0 0.0
2017-Nov-16 08:38N 34°09' W 119°12'0 0.0
2017-Nov-16 07:32N 34°09' W 119°12'0 0.0
2017-Nov-16 07:29N 34°09' W 119°12'0 0.0
2017-Nov-16 06:59N 34°09' W 119°12'0 0.0
2017-Nov-16 06:07N 34°09' W 119°12'0 0.0
2017-Nov-16 05:58N 34°09' W 119°12'0 0.0
2017-Nov-16 05:25N 34°09' W 119°12'0 0.0
2017-Nov-16 04:55N 34°09' W 119°12'0 0.0
2017-Nov-16 04:30N 34°09' W 119°12'0 0.0
2017-Nov-16 02:08N 34°09' W 119°12'0 0.0
2017-Nov-16 00:44N 34°09' W 119°12'0 0.0
2017-Nov-16 00:26N 34°09' W 119°12'0 0.0
2017-Nov-15 23:16N 34°09' W 119°12'0 0.0
2017-Nov-15 22:52N 34°09' W 119°12'0 0.0
2017-Nov-15 22:28N 34°09' W 119°12'0 0.0
2017-Nov-15 21:58N 34°09' W 119°12'0 0.0
2017-Nov-15 21:30N 34°09' W 119°12'0 0.0
2017-Nov-15 20:48N 34°09' W 119°12'0 0.0
2017-Nov-15 19:30N 34°09' W 119°12'0 0.0
2017-Nov-15 18:59N 34°09' W 119°12'0 0.0
2017-Nov-15 18:29N 34°09' W 119°12'0 0.0
2017-Nov-15 17:38N 34°09' W 119°12'0 0.0
2017-Nov-15 17:26N 34°09' W 119°12'0 0.0
2017-Nov-15 14:39N 34°09' W 119°12'0 0.0
2017-Nov-15 14:28N 34°09' W 119°12'2 3.3
2017-Nov-15 13:59N 34°08' W 119°14'3 6.2
2017-Nov-15 13:29N 34°05' W 119°14'814.7
2017-Nov-15 12:58N 33°57' W 119°12'816.1
2017-Nov-15 12:30N 33°51' W 119°06'816.4
2017-Nov-15 12:00N 33°45' W 119°00'816.0
2017-Nov-15 11:30N 33°38' W 118°54'816.5
2017-Nov-15 11:00N 33°32' W 118°48'816.5
2017-Nov-15 10:30N 33°25' W 118°42'816.6
2017-Nov-15 10:00N 33°19' W 118°36'816.7
2017-Nov-15 09:30N 33°12' W 118°30'816.5
2017-Nov-15 09:00N 33°05' W 118°24'816.2
2017-Nov-15 08:31N 32°59' W 118°19'816.1
2017-Nov-15 08:01N 32°52' W 118°13'816.4
2017-Nov-15 07:30N 32°46' W 118°08'816.3
2017-Nov-15 07:00N 32°39' W 118°02'816.4
2017-Nov-15 06:30N 32°32' W 117°56'613.0
2017-Nov-15 06:00N 32°27' W 117°52'612.2
2017-Nov-15 05:30N 32°21' W 117°50'612.3
2017-Nov-15 05:00N 32°16' W 117°47'816.6
2017-Nov-15 04:30N 32°08' W 117°43'2516.4
2017-Nov-15 02:58N 31°45' W 117°31'816.8
2017-Nov-15 02:30N 31°38' W 117°28'816.7
2017-Nov-15 02:00N 31°30' W 117°24'816.4
2017-Nov-15 01:30N 31°22' W 117°20'816.2
2017-Nov-15 01:00N 31°15' W 117°16'816.4
2017-Nov-15 00:31N 31°07' W 117°12'916.2
2017-Nov-14 23:58N 30°59' W 117°08'816.3
2017-Nov-14 23:31N 30°52' W 117°05'916.4
2017-Nov-14 22:59N 30°44' W 117°01'816.3
2017-Nov-14 22:29N 30°37' W 116°57'816.2
2017-Nov-14 22:00N 30°30' W 116°54'816.4
2017-Nov-14 21:30N 30°22' W 116°50'816.2
2017-Nov-14 21:01N 30°15' W 116°46'1416.3
2017-Nov-14 20:08N 30°02' W 116°40'216.5
2017-Nov-14 20:00N 30°00' W 116°39'816.2
2017-Nov-14 19:30N 29°53' W 116°35'816.4
2017-Nov-14 19:01N 29°45' W 116°32'816.2
2017-Nov-14 18:30N 29°38' W 116°28'816.4
2017-Nov-14 18:00N 29°30' W 116°25'816.8
2017-Nov-14 17:31N 29°22' W 116°21'1116.9
2017-Nov-14 16:52N 29°12' W 116°16'616.8
2017-Nov-14 16:30N 29°06' W 116°14'917.0
2017-Nov-14 16:00N 28°58' W 116°10'816.9
2017-Nov-14 15:30N 28°51' W 116°07'817.0
2017-Nov-14 15:01N 28°43' W 116°03'1017.1
2017-Nov-14 14:25N 28°33' W 115°59'717.2
2017-Nov-14 14:00N 28°27' W 115°56'916.9
2017-Nov-14 13:30N 28°19' W 115°52'2517.0
2017-Nov-14 12:02N 27°59' W 115°35'116.3
2017-Nov-14 12:00N 27°58' W 115°35'1716.8
2017-Nov-14 11:00N 27°45' W 115°23'816.6
2017-Nov-14 10:30N 27°39' W 115°18'916.8
2017-Nov-14 10:00N 27°32' W 115°12'1616.8
2017-Nov-14 09:02N 27°19' W 115°00'116.6
2017-Nov-14 08:56N 27°18' W 114°59'816.8
2017-Nov-14 08:27N 27°11' W 114°54'816.5
2017-Nov-14 07:58N 27°05' W 114°48'1216.8
2017-Nov-14 07:16N 26°56' W 114°41'517.0
2017-Nov-14 07:00N 26°52' W 114°38'3206.6
2017-Nov-14 07:00N 26°54' W 114°36'40516.9 340 / 151014.010.8 21.019.521.0
2017-Nov-13 07:00N 22°00' W 109°30'11917.0 320 / 141012.010.8 27.025.727.0
2017-Nov-13 00:00N 20°48' W 107°48'29716.5 310 / 91009.510.8 28.527.830.0
2017-Nov-12 06:00N 18°06' W 103°24'41817.4 320 / 101010.0 5.4 29.027.730.0
2017-Nov-11 06:00N 15°24' W 096°42'   280 / 151010.010.8 29.026.328.0
Track history (hours):
 
Tides and Currents Weather Stations Pressure Air Temp Water Temp Dewpoint Dewpoint Depression Visibility Wind Speed Wind Dir Waves Ship Positions

Conti Salome

Last reported at 2017-Nov-19 06:00 UTC. Time now 2017-Nov-20 02:15 UTC.
Position N 22°18' W 110°00'.

Length 203 m; beam 28 m; draft 11 m.

Type: Cargo ship. MMSI: 636017730.

Wind from 310 at 8 knots

Barometer 1012.0 mb
Air temperature 25.5 ° C
Visibility: greater than 10.8 NM
Dewpoint 24.1 ° C
Water temperature 28.0 ° C

Date/timePositionNaut miles runAvg speedWind from/ knotsBaromVisibWave heightAir tempDewpointWater temp
2017-Nov-19 06:00N 22°18' W 110°00'29216.2 310 / 81012.010.8 25.524.128.0
2017-Nov-18 12:00N 25°48' W 113°42'7418.5 360 / 121014.010.8 20.519.822.0
2017-Nov-18 08:00N 26°48' W 114°30'30016.2 340 / 171015.010.8 19.518.021.0
2017-Nov-17 13:27N 31°11' W 117°15'716.6
2017-Nov-17 13:00N 31°18' W 117°18'1316.5
2017-Nov-17 12:12N 31°30' W 117°24'616.4
2017-Nov-17 11:50N 31°36' W 117°27'616.5
2017-Nov-17 11:28N 31°41' W 117°29'2216.6
2017-Nov-17 10:07N 32°03' W 117°37'216.0
2017-Nov-17 10:00N 32°04' W 117°38'816.5
2017-Nov-17 09:30N 32°12' W 117°41'816.3
2017-Nov-17 09:01N 32°20' W 117°44'611.8
2017-Nov-17 08:31N 32°24' W 117°49'4 8.9
2017-Nov-17 08:01N 32°27' W 117°52'714.2
2017-Nov-17 07:30N 32°33' W 117°57'816.2
2017-Nov-17 07:00N 32°40' W 118°02'816.1
2017-Nov-17 06:30N 32°46' W 118°08'816.4
2017-Nov-17 06:00N 32°53' W 118°14'816.4
2017-Nov-17 05:30N 32°60' W 118°19'816.3
2017-Nov-17 05:00N 33°06' W 118°25'816.1
2017-Nov-17 04:30N 33°13' W 118°31'816.3
2017-Nov-17 04:00N 33°19' W 118°37'816.1
2017-Nov-17 03:30N 33°26' W 118°42'816.3
2017-Nov-17 03:00N 33°32' W 118°49'816.0
2017-Nov-17 02:29N 33°39' W 118°55'816.3
2017-Nov-17 02:00N 33°45' W 119°00'816.1
2017-Nov-17 01:29N 33°52' W 119°06'816.5
2017-Nov-17 00:59N 33°59' W 119°12'815.9
2017-Nov-17 00:30N 34°06' W 119°14'3 3.1
2017-Nov-16 23:33N 34°09' W 119°12'0 0.0
2017-Nov-16 23:03N 34°09' W 119°12'0 0.0
2017-Nov-16 21:50N 34°09' W 119°12'0 0.0
2017-Nov-16 19:16N 34°09' W 119°12'0 0.0
2017-Nov-16 11:34N 34°09' W 119°12'0 0.0
2017-Nov-16 11:30N 34°09' W 119°12'0 0.0
2017-Nov-16 10:57N 34°09' W 119°12'0 0.0
2017-Nov-16 08:38N 34°09' W 119°12'0 0.0
2017-Nov-16 07:32N 34°09' W 119°12'0 0.0
2017-Nov-16 07:29N 34°09' W 119°12'0 0.0
2017-Nov-16 06:59N 34°09' W 119°12'0 0.0
2017-Nov-16 06:07N 34°09' W 119°12'0 0.0
2017-Nov-16 05:58N 34°09' W 119°12'0 0.0
2017-Nov-16 05:25N 34°09' W 119°12'0 0.0
2017-Nov-16 04:55N 34°09' W 119°12'0 0.0
2017-Nov-16 04:30N 34°09' W 119°12'0 0.0
2017-Nov-16 02:08N 34°09' W 119°12'0 0.0
2017-Nov-16 00:44N 34°09' W 119°12'0 0.0
2017-Nov-16 00:26N 34°09' W 119°12'0 0.0
2017-Nov-15 23:16N 34°09' W 119°12'0 0.0
2017-Nov-15 22:52N 34°09' W 119°12'0 0.0
2017-Nov-15 22:28N 34°09' W 119°12'0 0.0
2017-Nov-15 21:58N 34°09' W 119°12'0 0.0
2017-Nov-15 21:30N 34°09' W 119°12'0 0.0
2017-Nov-15 20:48N 34°09' W 119°12'0 0.0
2017-Nov-15 19:30N 34°09' W 119°12'0 0.0
2017-Nov-15 18:59N 34°09' W 119°12'0 0.0
2017-Nov-15 18:29N 34°09' W 119°12'0 0.0
2017-Nov-15 17:38N 34°09' W 119°12'0 0.0
2017-Nov-15 17:26N 34°09' W 119°12'0 0.0
2017-Nov-15 14:39N 34°09' W 119°12'0 0.0
2017-Nov-15 14:28N 34°09' W 119°12'2 3.3
2017-Nov-15 13:59N 34°08' W 119°14'3 6.2
2017-Nov-15 13:29N 34°05' W 119°14'814.7
2017-Nov-15 12:58N 33°57' W 119°12'816.1
2017-Nov-15 12:30N 33°51' W 119°06'816.4
2017-Nov-15 12:00N 33°45' W 119°00'816.0
2017-Nov-15 11:30N 33°38' W 118°54'816.5
2017-Nov-15 11:00N 33°32' W 118°48'816.5
2017-Nov-15 10:30N 33°25' W 118°42'816.6
2017-Nov-15 10:00N 33°19' W 118°36'816.7
2017-Nov-15 09:30N 33°12' W 118°30'816.5
2017-Nov-15 09:00N 33°05' W 118°24'816.2
2017-Nov-15 08:31N 32°59' W 118°19'816.1
2017-Nov-15 08:01N 32°52' W 118°13'816.4
2017-Nov-15 07:30N 32°46' W 118°08'816.3
2017-Nov-15 07:00N 32°39' W 118°02'816.4
2017-Nov-15 06:30N 32°32' W 117°56'613.0
2017-Nov-15 06:00N 32°27' W 117°52'612.2
2017-Nov-15 05:30N 32°21' W 117°50'612.3
2017-Nov-15 05:00N 32°16' W 117°47'816.6
2017-Nov-15 04:30N 32°08' W 117°43'2516.4
2017-Nov-15 02:58N 31°45' W 117°31'816.8
2017-Nov-15 02:30N 31°38' W 117°28'816.7
2017-Nov-15 02:00N 31°30' W 117°24'816.4
2017-Nov-15 01:30N 31°22' W 117°20'816.2
2017-Nov-15 01:00N 31°15' W 117°16'816.4
2017-Nov-15 00:31N 31°07' W 117°12'916.2
2017-Nov-14 23:58N 30°59' W 117°08'816.3
2017-Nov-14 23:31N 30°52' W 117°05'916.4
2017-Nov-14 22:59N 30°44' W 117°01'816.3
2017-Nov-14 22:29N 30°37' W 116°57'816.2
2017-Nov-14 22:00N 30°30' W 116°54'816.4
2017-Nov-14 21:30N 30°22' W 116°50'816.2
2017-Nov-14 21:01N 30°15' W 116°46'1416.3
2017-Nov-14 20:08N 30°02' W 116°40'216.5
2017-Nov-14 20:00N 30°00' W 116°39'816.2
2017-Nov-14 19:30N 29°53' W 116°35'816.4
2017-Nov-14 19:01N 29°45' W 116°32'816.2
2017-Nov-14 18:30N 29°38' W 116°28'816.4
2017-Nov-14 18:00N 29°30' W 116°25'816.8
2017-Nov-14 17:31N 29°22' W 116°21'1116.9
2017-Nov-14 16:52N 29°12' W 116°16'616.8
2017-Nov-14 16:30N 29°06' W 116°14'917.0
2017-Nov-14 16:00N 28°58' W 116°10'816.9
2017-Nov-14 15:30N 28°51' W 116°07'817.0
2017-Nov-14 15:01N 28°43' W 116°03'1017.1
2017-Nov-14 14:25N 28°33' W 115°59'717.2
2017-Nov-14 14:00N 28°27' W 115°56'916.9
2017-Nov-14 13:30N 28°19' W 115°52'2517.0
2017-Nov-14 12:02N 27°59' W 115°35'116.3
2017-Nov-14 12:00N 27°58' W 115°35'1716.8
2017-Nov-14 11:00N 27°45' W 115°23'816.6
2017-Nov-14 10:30N 27°39' W 115°18'916.8
2017-Nov-14 10:00N 27°32' W 115°12'1616.8
2017-Nov-14 09:02N 27°19' W 115°00'116.6
2017-Nov-14 08:56N 27°18' W 114°59'816.8
2017-Nov-14 08:27N 27°11' W 114°54'816.5
2017-Nov-14 07:58N 27°05' W 114°48'1216.8
2017-Nov-14 07:16N 26°56' W 114°41'517.0
2017-Nov-14 07:00N 26°52' W 114°38'3206.6
2017-Nov-14 07:00N 26°54' W 114°36'40516.9 340 / 151014.010.8 21.019.521.0
2017-Nov-13 07:00N 22°00' W 109°30'11917.0 320 / 141012.010.8 27.025.727.0
2017-Nov-13 00:00N 20°48' W 107°48'29716.5 310 / 91009.510.8 28.527.830.0
2017-Nov-12 06:00N 18°06' W 103°24'41817.4 320 / 101010.0 5.4 29.027.730.0
2017-Nov-11 06:00N 15°24' W 096°42'   280 / 151010.010.8 29.026.328.0

Dump ship's entire track history